Time;durP1;ratioP1;P1;durP2;ratioP2;P2;SDS_P1;SDS_P2;PMS_P1;PMS_P2;Temp;Humidity;BMP_temperature;BMP_pressure;BME280_temperature;BME280_humidity;BME280_pressure;Samples;Min_cycle;Max_cycle;Signal;HPM_P1;HPM_P2
2021/12/24 00:00:38;;;;;;;;;;;;;;;2.03;60.08;99371.72;4449801;32;32717;-55
2021/12/24 00:03:06;;;;;;;;;;;;;;;2.01;60.09;99370.94;4451615;32;34823;-55
2021/12/24 00:05:33;;;;;;;;;;;;;;;1.69;60.62;99382.44;4449238;32;34895;-55
2021/12/24 00:08:01;;;;;;;;;;;;;;;1.70;60.69;99366.72;4451048;32;34916;-56
2021/12/24 00:10:30;;;;;;;;;;;;;;;2.00;60.00;99364.03;4450848;32;33460;-55
2021/12/24 00:13:03;;;;;;;;;;;;;;;2.09;59.79;99376.72;4450285;32;35006;-56
2021/12/24 00:18:36;;;;;;;;;;;;;;;2.00;59.76;99376.19;4449839;32;33842;-57
2021/12/24 00:37:19;;;;;;;;;;;;;;;2.07;60.14;99313.44;4435591;32;34754;-55
2021/12/24 00:40:33;;;;;;;;;;;;;;;2.06;60.54;99313.50;4434150;32;34981;-56
2021/12/24 00:42:34;;;;;;;;;;;;;;;2.31;59.97;99297.88;4424944;32;33128;-55
2021/12/24 00:45:02;;;;;;;;;;;;;;;2.23;60.10;99279.03;4436074;32;34207;-55
2021/12/24 00:47:30;;;;;;;;;;;;;;;2.31;59.51;99277.03;4449991;32;34475;-56
2021/12/24 00:49:58;;;;;;;;;;;;;;;2.35;59.33;99284.66;4451019;32;34067;-55
2021/12/24 00:52:45;;;;;;;;;;;;;;;2.30;59.44;99280.50;4449382;32;33447;-56
2021/12/24 00:55:14;;;;;;;;;;;;;;;2.42;59.06;99254.00;4450586;32;33881;-56
2021/12/24 00:57:43;;;;;;;;;;;;;;;2.48;58.83;99263.34;4450156;32;35155;-55
2021/12/24 01:00:15;;;;;;;;;;;;;;;2.21;59.74;99241.75;4449833;32;35171;-56
2021/12/24 01:02:43;;;;;;;;;;;;;;;2.08;60.13;99223.97;4450537;32;33954;-55
2021/12/24 01:05:10;;;;;;;;;;;;;;;2.33;59.73;99247.37;4449078;32;35047;-55
2021/12/24 01:07:38;;;;;;;;;;;;;;;2.15;60.39;99224.59;4450172;32;34539;-55
2021/12/24 01:10:06;;;;;;;;;;;;;;;2.40;59.55;99205.47;4449133;32;34389;-55
2021/12/24 01:12:34;;;;;;;;;;;;;;;2.21;60.01;99172.31;4450883;32;34102;-55
2021/12/24 01:15:01;;;;;;;;;;;;;;;2.24;59.99;99219.06;4449402;32;34674;-56
2021/12/24 01:20:03;;;;;;;;;;;;;;;1.91;61.12;99192.50;4435024;32;34442;-55
2021/12/24 01:25:25;;;;;;;;;;;;;;;1.97;61.28;99177.47;4435272;32;33499;-55
2021/12/24 01:38:50;;;;;;;;;;;;;;;2.07;61.21;99190.19;4381802;32;35891;-56
2021/12/24 01:42:40;;;;;;;;;;;;;;;2.02;61.71;99207.75;4452051;32;33420;-55
2021/12/24 01:44:09;;;;;;;;;;;;;;;2.06;61.79;99210.16;4450706;32;33366;-55
2021/12/24 01:46:37;;;;;;;;;;;;;;;2.13;61.04;99177.78;4452569;32;32879;-56
2021/12/24 01:49:05;;;;;;;;;;;;;;;2.29;60.48;99187.66;4450614;32;34748;-55
2021/12/24 01:51:32;;;;;;;;;;;;;;;2.09;60.96;99201.37;4451888;32;35094;-55
2021/12/24 01:54:00;;;;;;;;;;;;;;;2.05;61.53;99152.91;4451658;32;33809;-55
2021/12/24 01:56:29;;;;;;;;;;;;;;;2.23;61.03;99175.69;4451086;32;33919;-56
2021/12/24 01:58:56;;;;;;;;;;;;;;;2.16;61.23;99158.59;4451774;32;33736;-56
2021/12/24 02:01:27;;;;;;;;;;;;;;;2.23;61.00;99160.06;4436922;32;34280;-56
2021/12/24 02:03:55;;;;;;;;;;;;;;;2.21;61.15;99153.19;4452289;32;33947;-56
2021/12/24 02:06:22;;;;;;;;;;;;;;;2.33;60.85;99161.41;4450194;32;33929;-55
2021/12/24 02:08:49;;;;;;;;;;;;;;;2.38;60.71;99145.59;4452005;32;34622;-56
2021/12/24 02:11:18;;;;;;;;;;;;;;;2.34;60.76;99131.81;4451433;32;33829;-55
2021/12/24 02:13:45;;;;;;;;;;;;;;;1.94;62.01;99117.72;4450592;32;34435;-55
2021/12/24 02:16:34;;;;;;;;;;;;;;;2.14;61.47;99116.97;4451602;32;34614;-56
2021/12/24 02:29:54;;;;;;;;;;;;;;;2.00;61.90;99098.41;4451850;32;35519;-55
2021/12/24 02:32:22;;;;;;;;;;;;;;;2.10;61.69;99096.31;4450596;32;34555;-55
2021/12/24 02:34:49;;;;;;;;;;;;;;;2.27;61.23;99117.34;4450771;32;33337;-55
2021/12/24 02:37:17;;;;;;;;;;;;;;;2.16;61.66;99101.28;4451605;32;33584;-55
2021/12/24 02:39:44;;;;;;;;;;;;;;;2.25;61.36;99069.69;4450792;32;35666;-56
2021/12/24 02:42:15;;;;;;;;;;;;;;;2.17;61.65;99067.38;4451512;32;34475;-55
2021/12/24 02:44:43;;;;;;;;;;;;;;;2.42;61.05;99068.97;4450630;32;33657;-55
2021/12/24 02:47:40;;;;;;;;;;;;;;;2.31;61.45;99050.34;4452149;32;34031;-55
2021/12/24 02:55:16;;;;;;;;;;;;;;;2.08;61.94;99015.63;4451493;32;34224;-56
2021/12/24 02:57:44;;;;;;;;;;;;;;;2.19;61.68;99027.38;4450828;32;34300;-55
2021/12/24 03:00:19;;;;;;;;;;;;;;;2.32;61.53;99031.19;4452164;32;35133;-55
2021/12/24 03:02:48;;;;;;;;;;;;;;;2.23;61.57;99036.75;4450894;32;34751;-56
2021/12/24 03:05:17;;;;;;;;;;;;;;;1.90;62.05;99042.38;4450472;32;34079;-56
2021/12/24 03:07:45;;;;;;;;;;;;;;;1.94;62.23;99043.97;4452014;32;33963;-55
2021/12/24 03:10:16;;;;;;;;;;;;;;;1.98;61.97;99055.97;4450902;32;35591;-55
2021/12/24 03:12:45;;;;;;;;;;;;;;;2.06;62.04;99056.50;4450927;32;34119;-55
2021/12/24 03:15:13;;;;;;;;;;;;;;;2.20;61.59;99070.75;4436967;32;33741;-55
2021/12/24 03:17:49;;;;;;;;;;;;;;;2.40;61.01;99064.75;4451938;32;34498;-56
2021/12/24 03:20:17;;;;;;;;;;;;;;;2.27;61.66;99093.03;4450352;32;35516;-55
2021/12/24 03:25:18;;;;;;;;;;;;;;;2.50;61.08;99089.53;4451789;32;33673;-56
2021/12/24 03:27:45;;;;;;;;;;;;;;;2.55;61.21;99098.88;4450455;32;33151;-55
2021/12/24 03:30:12;;;;;;;;;;;;;;;2.31;62.12;99073.81;4451470;32;34145;-56
2021/12/24 03:32:40;;;;;;;;;;;;;;;2.40;62.02;99052.56;4450594;32;34358;-55
2021/12/24 03:35:07;;;;;;;;;;;;;;;2.62;61.50;99057.78;4451095;32;33360;-55
2021/12/24 03:37:35;;;;;;;;;;;;;;;2.42;62.65;99050.75;4450842;32;34640;-55
2021/12/24 03:40:03;;;;;;;;;;;;;;;2.63;62.05;99049.03;4450626;32;34632;-55
2021/12/24 03:42:31;;;;;;;;;;;;;;;2.61;62.31;99044.81;4452048;32;33917;-55
2021/12/24 03:45:08;;;;;;;;;;;;;;;2.51;62.67;99053.00;4450714;32;33455;-56
2021/12/24 03:47:40;;;;;;;;;;;;;;;2.67;62.29;99045.38;4451216;32;33968;-56
2021/12/24 03:50:11;;;;;;;;;;;;;;;2.60;62.87;99025.72;4450570;32;35716;-55
2021/12/24 03:53:02;;;;;;;;;;;;;;;2.34;64.12;99024.16;4450768;32;35125;-55
2021/12/24 03:55:26;;;;;;;;;;;;;;;2.64;62.65;99023.84;4451298;32;33869;-55
2021/12/24 03:57:53;;;;;;;;;;;;;;;2.55;63.25;99020.66;4450014;32;34848;-56
2021/12/24 04:00:32;;;;;;;;;;;;;;;2.82;62.44;99024.81;4451580;32;33866;-55
2021/12/24 04:03:01;;;;;;;;;;;;;;;2.84;62.57;99023.81;4450748;32;34398;-56
2021/12/24 04:05:30;;;;;;;;;;;;;;;2.34;64.09;99003.31;4451553;32;32059;-55
2021/12/24 04:08:02;;;;;;;;;;;;;;;2.75;62.91;98996.41;4449240;32;34957;-56
2021/12/24 04:10:43;;;;;;;;;;;;;;;2.71;63.21;98996.56;4450025;32;34037;-56
2021/12/24 04:13:13;;;;;;;;;;;;;;;2.82;62.93;98996.13;4436384;32;33961;-55
2021/12/24 04:15:41;;;;;;;;;;;;;;;2.71;63.33;98991.38;4435026;32;33459;-55
2021/12/24 04:18:37;;;;;;;;;;;;;;;2.72;63.25;98980.03;4442071;32;34311;-55
2021/12/24 04:26:39;;;;;;;;;;;;;;;2.73;63.02;98955.66;4451469;32;33432;-55
2021/12/24 04:29:06;;;;;;;;;;;;;;;2.78;62.77;98951.09;4450292;32;33727;-56
2021/12/24 04:31:42;;;;;;;;;;;;;;;2.80;62.63;98951.88;4451092;32;35477;-55
2021/12/24 04:34:14;;;;;;;;;;;;;;;2.73;62.89;98940.87;4439067;32;33919;-56
2021/12/24 04:39:37;;;;;;;;;;;;;;;2.77;62.76;98957.19;4450742;32;33860;-55
2021/12/24 05:01:41;;;;;;;;;;;;;;;2.55;63.79;98945.09;4450350;32;34161;-55
2021/12/24 05:04:10;;;;;;;;;;;;;;;2.72;63.67;98935.72;4450859;32;34820;-55
2021/12/24 05:06:48;;;;;;;;;;;;;;;2.50;64.28;98933.16;4449938;32;36116;-55
2021/12/24 05:09:21;;;;;;;;;;;;;;;2.47;64.23;98934.16;4451138;32;32967;-55
2021/12/24 05:11:49;;;;;;;;;;;;;;;2.37;64.57;98940.66;4449454;32;34928;-55
2021/12/24 05:14:18;;;;;;;;;;;;;;;2.50;64.01;98941.84;4452047;32;34701;-56
2021/12/24 05:16:50;;;;;;;;;;;;;;;2.42;64.66;98932.66;4437088;32;33573;-55
2021/12/24 05:22:05;;;;;;;;;;;;;;;2.65;63.90;98924.69;4450051;32;34954;-55
2021/12/24 05:24:33;;;;;;;;;;;;;;;2.43;64.53;98932.59;4451723;32;34636;-55
2021/12/24 05:27:02;;;;;;;;;;;;;;;2.42;64.55;98930.03;4452880;32;34485;-56
2021/12/24 05:29:31;;;;;;;;;;;;;;;2.33;65.50;98926.09;4451685;32;34829;-55
2021/12/24 05:31:59;;;;;;;;;;;;;;;2.37;65.05;98930.25;4451837;32;34078;-55
2021/12/24 05:34:26;;;;;;;;;;;;;;;2.54;64.48;98933.00;4452747;32;35692;-55
2021/12/24 05:36:55;;;;;;;;;;;;;;;2.53;64.70;98923.47;4451632;32;34529;-55
2021/12/24 05:39:23;;;;;;;;;;;;;;;2.53;64.94;98938.25;4452953;32;33258;-55
2021/12/24 05:41:51;;;;;;;;;;;;;;;2.62;64.66;98923.97;4451211;32;33704;-56
2021/12/24 05:44:18;;;;;;;;;;;;;;;2.55;64.73;98924.25;4452657;32;34826;-55
2021/12/24 05:46:46;;;;;;;;;;;;;;;2.46;64.92;98937.69;4452105;32;34704;-56
2021/12/24 05:49:14;;;;;;;;;;;;;;;2.79;63.77;98946.72;4452288;32;33465;-56
2021/12/24 05:51:47;;;;;;;;;;;;;;;2.66;64.02;98936.81;4452356;32;34032;-55
2021/12/24 05:54:18;;;;;;;;;;;;;;;2.52;63.80;98946.97;4451085;32;34598;-55
2021/12/24 05:56:46;;;;;;;;;;;;;;;2.59;64.03;98952.78;4452919;32;34456;-56
2021/12/24 05:59:14;;;;;;;;;;;;;;;2.54;64.17;98943.41;4451521;32;33096;-55
2021/12/24 06:01:41;;;;;;;;;;;;;;;2.55;64.37;98957.28;4452186;32;34831;-56
2021/12/24 06:04:09;;;;;;;;;;;;;;;2.73;63.90;98981.72;4452145;32;35772;-55
2021/12/24 06:06:37;;;;;;;;;;;;;;;2.82;63.47;98960.47;4451962;32;33616;-56
2021/12/24 06:09:04;;;;;;;;;;;;;;;2.84;63.60;98957.81;4452337;32;33400;-55
2021/12/24 06:11:32;;;;;;;;;;;;;;;2.77;63.60;98946.78;4450929;32;34861;-56
2021/12/24 06:14:06;;;;;;;;;;;;;;;2.79;63.58;98957.97;4451986;32;34509;-56
2021/12/24 06:16:35;;;;;;;;;;;;;;;2.85;63.73;98959.47;4451255;32;33992;-55
2021/12/24 06:19:03;;;;;;;;;;;;;;;2.81;63.94;98947.50;4452207;32;33410;-55
2021/12/24 06:21:31;;;;;;;;;;;;;;;2.47;65.18;98939.38;4451967;32;34006;-56
2021/12/24 06:23:58;;;;;;;;;;;;;;;2.68;64.57;98937.59;4450903;32;35486;-56
2021/12/24 06:26:25;;;;;;;;;;;;;;;2.62;64.66;98923.97;4451874;32;34376;-56
2021/12/24 06:28:52;;;;;;;;;;;;;;;2.82;63.77;98917.91;4450425;32;32839;-55
2021/12/24 06:31:20;;;;;;;;;;;;;;;2.60;64.23;98925.81;4452401;32;34568;-55
2021/12/24 06:33:47;;;;;;;;;;;;;;;2.38;64.87;98926.72;4451261;32;34325;-56
2021/12/24 06:36:14;;;;;;;;;;;;;;;2.53;64.73;98907.81;4451988;32;34320;-56
2021/12/24 06:38:41;;;;;;;;;;;;;;;2.70;64.11;98919.28;4451251;32;33636;-55
2021/12/24 06:41:09;;;;;;;;;;;;;;;2.55;64.61;98920.78;4451476;32;33288;-56
2021/12/24 06:43:36;;;;;;;;;;;;;;;2.47;65.08;98910.69;4452215;32;34802;-55
2021/12/24 06:46:10;;;;;;;;;;;;;;;2.70;64.46;98909.72;4450346;32;35251;-55
2021/12/24 06:48:38;;;;;;;;;;;;;;;2.64;64.47;98920.41;4451003;32;32729;-56
2021/12/24 06:51:05;;;;;;;;;;;;;;;2.79;64.02;98905.84;4450078;32;34285;-55
2021/12/24 06:53:32;;;;;;;;;;;;;;;2.75;64.37;98904.28;4451544;32;34822;-56
2021/12/24 06:55:59;;;;;;;;;;;;;;;2.78;64.46;98911.97;4451618;32;34378;-56
2021/12/24 06:58:29;;;;;;;;;;;;;;;2.72;64.66;98909.66;4450318;32;34035;-55
2021/12/24 07:00:56;;;;;;;;;;;;;;;2.88;64.25;98910.66;4451755;32;34515;-55
2021/12/24 07:03:23;;;;;;;;;;;;;;;2.78;64.49;98919.81;4450353;32;33991;-56
2021/12/24 07:05:51;;;;;;;;;;;;;;;2.63;65.03;98907.44;4443514;32;37044;-55
2021/12/24 07:08:18;;;;;;;;;;;;;;;2.71;65.16;98918.37;4449954;32;33257;-56
2021/12/24 07:10:45;;;;;;;;;;;;;;;2.47;66.13;98930.72;4438446;32;35541;-55
2021/12/24 07:13:12;;;;;;;;;;;;;;;3.19;77.92;98922.31;4447753;32;34342;-56
2021/12/24 07:15:40;;;;;;;;;;;;;;;3.25;73.70;98915.97;4427796;32;34317;-56
2021/12/24 07:18:07;;;;;;;;;;;;;;;3.23;73.44;98926.47;4440511;32;34211;-56
2021/12/24 07:20:34;;;;;;;;;;;;;;;3.13;71.12;98910.41;4450529;32;33851;-55
2021/12/24 07:23:01;;;;;;;;;;;;;;;3.23;68.22;98934.31;4451271;32;35413;-55
2021/12/24 07:25:29;;;;;;;;;;;;;;;2.88;66.89;98912.41;4450606;32;34483;-56
2021/12/24 07:27:56;;;;;;;;;;;;;;;3.07;66.41;98904.63;4451580;32;33524;-56
2021/12/24 07:30:23;;;;;;;;;;;;;;;3.12;66.11;98923.50;4450685;32;33810;-55
2021/12/24 07:32:50;;;;;;;;;;;;;;;2.95;66.61;98919.06;4450764;32;34475;-55
2021/12/24 07:35:18;;;;;;;;;;;;;;;3.04;66.51;98934.28;4450987;32;35694;-56
2021/12/24 07:37:45;;;;;;;;;;;;;;;3.19;66.03;98930.16;4449812;32;33518;-55
2021/12/24 07:40:15;;;;;;;;;;;;;;;3.09;66.39;98934.94;4451623;32;33351;-55
2021/12/24 07:42:44;;;;;;;;;;;;;;;3.05;66.67;98946.41;4450493;32;34213;-56
2021/12/24 07:45:12;;;;;;;;;;;;;;;3.13;66.38;98959.97;4451791;32;34213;-55
2021/12/24 07:47:41;;;;;;;;;;;;;;;3.20;65.70;98947.50;4450976;32;33849;-56
2021/12/24 07:52:56;;;;;;;;;;;;;;;3.04;66.19;98917.78;4451118;32;34703;-56
2021/12/24 07:55:23;;;;;;;;;;;;;;;3.04;66.03;98896.94;4450498;32;34239;-56
2021/12/24 07:57:52;;;;;;;;;;;;;;;3.12;65.97;98893.06;4451499;32;32881;-55
2021/12/24 08:00:22;;;;;;;;;;;;;;;3.12;66.10;98882.63;4449402;32;34458;-56
2021/12/24 08:02:50;;;;;;;;;;;;;;;3.41;65.33;98880.41;4449878;32;34846;-56
2021/12/24 08:05:19;;;;;;;;;;;;;;;3.38;65.26;98892.78;4442701;32;35201;-55
2021/12/24 08:07:47;;;;;;;;;;;;;;;3.27;65.54;98888.87;4449644;32;32845;-55
2021/12/24 08:10:14;;;;;;;;;;;;;;;3.40;65.60;98902.22;4422742;32;879137;-56
2021/12/24 08:12:47;;;;;;;;;;;;;;;3.21;66.13;98865.69;4450432;32;35339;-56
2021/12/24 08:15:14;;;;;;;;;;;;;;;3.45;65.04;98888.94;4451569;32;34767;-56
2021/12/24 08:17:41;;;;;;;;;;;;;;;3.55;64.99;98879.78;4437279;32;34266;-55
2021/12/24 08:20:09;;;;;;;;;;;;;;;3.62;64.97;98880.31;4435813;32;33818;-56
2021/12/24 08:22:36;;;;;;;;;;;;;;;3.44;65.54;98882.88;4451289;32;34484;-56
2021/12/24 08:25:05;;;;;;;;;;;;;;;3.40;65.59;98891.78;4449726;32;34024;-56
2021/12/24 08:27:33;;;;;;;;;;;;;;;3.63;64.95;98889.88;4451261;32;33729;-55
2021/12/24 08:30:00;;;;;;;;;;;;;;;3.54;65.66;98870.25;4449953;32;34624;-55
2021/12/24 08:32:28;;;;;;;;;;;;;;;3.63;65.63;98854.16;4451316;32;34575;-55
2021/12/24 08:34:55;;;;;;;;;;;;;;;3.74;65.76;98864.94;4450204;32;35145;-55
2021/12/24 08:37:23;;;;;;;;;;;;;;;3.67;66.27;98873.13;4450086;32;33632;-55
2021/12/24 08:39:51;;;;;;;;;;;;;;;3.73;66.05;98863.22;4450076;32;34383;-56
2021/12/24 08:42:18;;;;;;;;;;;;;;;3.97;64.95;98870.78;4450165;32;35603;-55
2021/12/24 08:44:45;;;;;;;;;;;;;;;3.87;65.55;98861.72;4450978;32;35019;-56
2021/12/24 08:47:12;;;;;;;;;;;;;;;4.10;65.36;98834.44;4449299;32;33430;-56
2021/12/24 08:49:40;;;;;;;;;;;;;;;4.01;65.91;98847.97;4449943;32;33712;-56
2021/12/24 08:52:07;;;;;;;;;;;;;;;4.08;65.93;98844.97;4431978;32;34339;-55
2021/12/24 08:54:35;;;;;;;;;;;;;;;4.21;66.03;98862.66;4449286;32;34120;-55
2021/12/24 08:57:02;;;;;;;;;;;;;;;4.29;65.80;98850.87;4435818;32;33476;-56
2021/12/24 08:59:29;;;;;;;;;;;;;;;4.30;65.37;98865.66;4445877;32;35277;-56
2021/12/24 09:01:58;;;;;;;;;;;;;;;4.44;65.24;98854.47;4450686;32;35330;-55
2021/12/24 09:04:26;;;;;;;;;;;;;;;4.63;64.35;98850.91;4448982;32;34026;-55
2021/12/24 09:06:53;;;;;;;;;;;;;;;4.90;64.24;98851.22;4449849;32;34039;-56
2021/12/24 09:09:20;;;;;;;;;;;;;;;5.09;63.79;98845.84;4449818;32;34832;-56
2021/12/24 09:11:47;;;;;;;;;;;;;;;5.11;64.16;98850.03;4450030;32;34731;-56
2021/12/24 09:14:17;;;;;;;;;;;;;;;5.35;63.77;98856.63;4450195;32;34308;-56
2021/12/24 09:16:45;;;;;;;;;;;;;;;5.41;63.57;98857.16;4446249;32;32919;-55
2021/12/24 09:19:16;;;;;;;;;;;;;;;5.33;64.01;98860.22;4439003;32;34239;-56
2021/12/24 09:21:44;;;;;;;;;;;;;;;5.29;64.76;98858.69;4435602;32;35037;-56
2021/12/24 09:24:11;;;;;;;;;;;;;;;5.46;64.38;98856.91;4421421;32;34866;-56
2021/12/24 09:26:39;;;;;;;;;;;;;;;5.31;64.86;98853.34;4434148;32;32916;-56
2021/12/24 09:29:07;;;;;;;;;;;;;;;5.31;64.95;98843.75;4445473;32;34325;-55
2021/12/24 09:31:36;;;;;;;;;;;;;;;5.39;65.21;98837.22;4450584;32;34811;-56
2021/12/24 09:34:03;;;;;;;;;;;;;;;5.57;64.70;98836.19;4446180;32;34601;-55
2021/12/24 09:36:30;;;;;;;;;;;;;;;5.67;65.22;98821.63;4448675;32;32644;-56
2021/12/24 09:39:00;;;;;;;;;;;;;;;5.52;65.55;98825.13;4448948;32;34062;-56
2021/12/24 09:41:28;;;;;;;;;;;;;;;5.67;65.03;98823.41;4450170;32;34242;-56
2021/12/24 09:43:58;;;;;;;;;;;;;;;5.72;65.04;98822.22;4449237;32;34812;-56
2021/12/24 09:46:26;;;;;;;;;;;;;;;5.85;64.98;98811.87;4449241;32;33539;-56
2021/12/24 09:48:54;;;;;;;;;;;;;;;5.83;64.63;98805.03;4449890;32;33864;-56
2021/12/24 09:51:25;;;;;;;;;;;;;;;6.03;64.50;98802.16;4448494;32;34836;-56
2021/12/24 09:53:52;;;;;;;;;;;;;;;6.09;64.72;98786.03;4434415;32;34890;-56
2021/12/24 09:56:20;;;;;;;;;;;;;;;6.44;63.61;98793.56;4444830;32;33305;-56
2021/12/24 09:58:47;;;;;;;;;;;;;;;6.42;63.05;98795.44;4435469;32;34959;-56
2021/12/24 10:01:27;;;;;;;;;;;;;;;6.40;63.50;98765.84;4451553;32;34131;-56
2021/12/24 10:04:02;;;;;;;;;;;;;;;6.46;63.10;98772.50;4450638;32;35363;-56
2021/12/24 10:06:30;;;;;;;;;;;;;;;6.47;63.52;98769.78;4451660;32;34236;-56
2021/12/24 10:09:02;;;;;;;;;;;;;;;6.66;63.19;98771.28;4449455;32;34565;-56
2021/12/24 10:11:30;;;;;;;;;;;;;;;6.81;63.11;98759.81;4452198;32;34376;-56
2021/12/24 10:14:04;;;;;;;;;;;;;;;6.83;63.32;98760.56;4451030;32;34273;-56
2021/12/24 10:16:32;;;;;;;;;;;;;;;6.97;62.94;98758.84;4451487;32;33951;-56
2021/12/24 10:19:00;;;;;;;;;;;;;;;7.00;62.42;98748.16;4451550;32;34473;-56
2021/12/24 10:21:29;;;;;;;;;;;;;;;6.92;62.41;98745.19;4450232;32;34714;-56
2021/12/24 10:23:57;;;;;;;;;;;;;;;6.94;62.51;98752.03;4450832;32;35319;-56
2021/12/24 10:26:29;;;;;;;;;;;;;;;8.21;75.75;98753.28;4450928;32;33529;-56
2021/12/24 10:29:07;;;;;;;;;;;;;;;9.04;67.14;98749.31;4438033;32;34383;-56
2021/12/24 10:31:55;;;;;;;;;;;;;;;8.85;57.34;98747.97;4451571;32;34756;-56
2021/12/24 10:34:26;;;;;;;;;;;;;;;8.61;56.22;98749.72;4450792;32;34087;-56
2021/12/24 10:36:57;;;;;;;;;;;;;;;8.51;56.91;98744.28;4451664;32;33509;-56
2021/12/24 10:39:31;;;;;;;;;;;;;;;8.50;57.23;98739.09;4450531;32;34192;-55
2021/12/24 10:41:59;;;;;;;;;;;;;;;8.39;57.74;98740.66;4452064;32;35684;-55
2021/12/24 10:44:28;;;;;;;;;;;;;;;8.36;57.47;98740.03;4451305;32;35851;-56
2021/12/24 10:47:00;;;;;;;;;;;;;;;8.35;57.92;98743.59;4451170;32;34398;-56
2021/12/24 10:49:51;;;;;;;;;;;;;;;8.30;57.94;98736.03;4451913;32;34303;-56
2021/12/24 10:54:55;;;;;;;;;;;;;;;8.23;58.87;98724.25;4450495;32;34779;-56
2021/12/24 10:57:24;;;;;;;;;;;;;;;8.38;58.38;98723.19;4449567;32;32945;-56
2021/12/24 10:59:53;;;;;;;;;;;;;;;8.97;69.32;98733.09;4449435;32;33989;-56
2021/12/24 11:02:23;;;;;;;;;;;;;;;9.19;61.34;98727.13;4450907;32;35943;-56
2021/12/24 11:04:53;;;;;;;;;;;;;;;9.07;57.88;98725.34;4449885;32;34583;-56
2021/12/24 11:07:37;;;;;;;;;;;;;;;9.02;57.23;98725.69;4437589;32;33194;-56
2021/12/24 11:10:12;;;;;;;;;;;;;;;9.14;56.67;98716.06;4449976;32;34971;-55
2021/12/24 11:12:40;;;;;;;;;;;;;;;9.05;59.52;98727.25;4449281;32;34873;-56
2021/12/24 11:15:40;;;;;;;;;;;;;;;9.03;58.68;98732.66;4442493;32;34339;-56
2021/12/24 11:18:09;;;;;;;;;;;;;;;9.04;58.58;98736.13;4402288;32;33300;-56
2021/12/24 11:20:36;;;;;;;;;;;;;;;9.22;56.55;98726.03;4433128;32;34009;-56
2021/12/24 11:23:05;;;;;;;;;;;;;;;9.35;55.38;98723.38;4451248;32;35203;-56
2021/12/24 11:25:34;;;;;;;;;;;;;;;9.46;55.27;98718.16;4450220;32;35247;-56
2021/12/24 11:28:02;;;;;;;;;;;;;;;9.35;55.90;98726.00;4450862;32;33823;-56
2021/12/24 11:30:30;;;;;;;;;;;;;;;9.56;54.79;98720.94;4450665;32;34285;-56
2021/12/24 11:32:57;;;;;;;;;;;;;;;9.57;54.81;98727.87;4451068;32;35378;-56
2021/12/24 11:35:25;;;;;;;;;;;;;;;9.41;55.60;98722.91;4446621;32;34873;-56
2021/12/24 11:37:53;;;;;;;;;;;;;;;9.25;55.80;98718.75;4442005;32;33631;-56
2021/12/24 11:40:21;;;;;;;;;;;;;;;9.58;55.18;98706.69;4450439;32;33744;-56
2021/12/24 11:42:52;;;;;;;;;;;;;;;9.37;56.24;98713.56;4450166;32;34931;-56
2021/12/24 11:45:20;;;;;;;;;;;;;;;9.51;55.51;98700.19;4436187;32;35029;-56
2021/12/24 11:47:47;;;;;;;;;;;;;;;9.50;55.32;98700.28;4438490;32;34439;-56
2021/12/24 11:50:16;;;;;;;;;;;;;;;9.87;54.77;98703.66;4449980;32;34265;-56
2021/12/24 11:52:45;;;;;;;;;;;;;;;9.81;55.29;98698.84;4448779;32;34696;-56
2021/12/24 11:55:12;;;;;;;;;;;;;;;9.84;54.96;98701.22;4436847;32;34579;-56
2021/12/24 11:57:49;;;;;;;;;;;;;;;9.73;55.64;98704.69;4449756;32;33405;-56
2021/12/24 12:00:20;;;;;;;;;;;;;;;9.78;55.07;98699.91;4441689;32;33753;-56
2021/12/24 12:02:49;;;;;;;;;;;;;;;10.01;54.31;98692.03;4450662;32;34211;-56
2021/12/24 12:05:19;;;;;;;;;;;;;;;9.95;55.13;98687.25;4447286;32;34350;-56
2021/12/24 12:07:46;;;;;;;;;;;;;;;10.00;54.90;98688.56;4451409;32;33686;-56
2021/12/24 12:10:13;;;;;;;;;;;;;;;10.09;55.20;98694.09;4449705;32;34735;-56
2021/12/24 12:12:41;;;;;;;;;;;;;;;10.29;54.67;98681.97;4436820;32;34508;-56
2021/12/24 12:15:26;;;;;;;;;;;;;;;10.55;53.90;98682.59;4450674;32;34759;-56
2021/12/24 12:17:55;;;;;;;;;;;;;;;10.45;54.15;98695.69;4449806;32;33095;-56
2021/12/24 12:20:43;;;;;;;;;;;;;;;10.40;54.64;98695.19;4450090;32;35054;-56
2021/12/24 12:23:26;;;;;;;;;;;;;;;10.39;55.41;98693.50;4438357;32;34755;-56
2021/12/24 12:25:53;;;;;;;;;;;;;;;10.43;54.74;98689.69;4436237;32;34125;-56
2021/12/24 12:28:26;;;;;;;;;;;;;;;10.46;54.73;98701.81;4450439;32;33465;-56
2021/12/24 12:30:54;;;;;;;;;;;;;;;10.31;55.88;98695.91;4447616;32;34923;-56
2021/12/24 12:33:31;;;;;;;;;;;;;;;10.20;55.78;98702.84;4449925;32;34665;-56
2021/12/24 12:35:59;;;;;;;;;;;;;;;10.38;55.52;98703.22;4448695;32;34073;-56
2021/12/24 12:38:27;;;;;;;;;;;;;;;10.54;55.18;98692.31;4451096;32;32833;-56
2021/12/24 12:41:06;;;;;;;;;;;;;;;10.62;55.43;98694.34;4449455;32;35137;-56
2021/12/24 12:43:34;;;;;;;;;;;;;;;10.44;57.41;98696.63;4428367;32;34466;-56
2021/12/24 12:46:01;;;;;;;;;;;;;;;10.36;58.26;98705.16;4436565;32;34807;-56
2021/12/24 12:48:41;;;;;;;;;;;;;;;10.22;59.39;98705.37;4449218;32;32738;-56
2021/12/24 12:51:08;;;;;;;;;;;;;;;10.40;58.83;98693.41;4423622;32;33895;-56
2021/12/24 12:53:37;;;;;;;;;;;;;;;10.19;61.46;98700.31;4434994;32;35135;-56
2021/12/24 12:56:13;;;;;;;;;;;;;;;10.07;60.91;98701.28;4449860;32;35330;-56
2021/12/24 12:58:41;;;;;;;;;;;;;;;9.97;61.34;98698.50;4449911;32;32997;-56
2021/12/24 13:01:19;;;;;;;;;;;;;;;10.08;61.13;98698.53;4448867;32;34881;-56
2021/12/24 13:03:55;;;;;;;;;;;;;;;10.15;61.00;98701.53;4449611;32;34183;-56
2021/12/24 13:06:22;;;;;;;;;;;;;;;10.01;62.02;98684.13;4448951;32;34528;-56
2021/12/24 13:08:50;;;;;;;;;;;;;;;9.90;62.89;98682.28;4449469;32;33590;-56
2021/12/24 13:11:18;;;;;;;;;;;;;;;9.73;64.22;98696.78;4449968;32;34107;-56
2021/12/24 13:13:50;;;;;;;;;;;;;;;9.67;64.87;98691.94;4449060;32;34790;-56
2021/12/24 13:16:19;;;;;;;;;;;;;;;9.78;64.37;98696.44;4449919;32;33849;-56
2021/12/24 13:18:59;;;;;;;;;;;;;;;9.68;65.08;98695.44;4448827;32;33916;-56
2021/12/24 13:24:14;;;;;;;;;;;;;;;9.60;65.80;98712.66;4449372;32;34838;-56
2021/12/24 13:26:42;;;;;;;;;;;;;;;9.60;65.85;98719.75;4440988;32;34085;-56
2021/12/24 13:29:16;;;;;;;;;;;;;;;9.74;65.20;98713.44;4449327;32;33652;-56
2021/12/24 13:31:51;;;;;;;;;;;;;;;9.53;65.83;98722.00;4448676;32;34023;-56
2021/12/24 13:34:18;;;;;;;;;;;;;;;9.61;65.74;98708.22;4450867;32;34935;-56
2021/12/24 13:36:46;;;;;;;;;;;;;;;9.68;65.22;98714.75;4436312;32;34037;-56
2021/12/24 13:39:14;;;;;;;;;;;;;;;9.49;66.08;98733.72;4437432;32;33317;-55
2021/12/24 13:41:42;;;;;;;;;;;;;;;9.52;66.04;98724.72;4437811;32;33603;-55
2021/12/24 13:44:20;;;;;;;;;;;;;;;9.54;65.92;98718.41;4451203;32;35395;-56
2021/12/24 13:47:01;;;;;;;;;;;;;;;9.62;65.27;98739.75;4452006;32;33975;-56
2021/12/24 13:50:06;;;;;;;;;;;;;;;9.52;65.55;98754.59;4449507;32;33498;-56
2021/12/24 13:55:20;;;;;;;;;;;;;;;9.50;65.03;98724.00;4441385;32;34533;-55
2021/12/24 13:57:51;;;;;;;;;;;;;;;9.42;65.15;98749.16;4450424;32;34293;-56
2021/12/24 14:00:19;;;;;;;;;;;;;;;9.51;64.57;98749.41;4451915;32;34121;-56
2021/12/24 14:02:54;;;;;;;;;;;;;;;9.35;64.99;98754.97;4436899;32;33730;-56
2021/12/24 14:05:21;;;;;;;;;;;;;;;9.39;64.64;98748.53;4451435;32;35551;-56
2021/12/24 14:08:04;;;;;;;;;;;;;;;9.43;69.80;98756.09;4450441;32;34367;-56
2021/12/24 14:10:31;;;;;;;;;;;;;;;9.39;67.98;98766.97;4450192;32;33870;-56
2021/12/24 14:13:06;;;;;;;;;;;;;;;9.21;66.74;98756.81;4451626;32;34543;-56
2021/12/24 14:15:46;;;;;;;;;;;;;;;9.23;66.37;98746.19;4451579;32;34834;-56
2021/12/24 14:24:06;;;;;;;;;;;;;;;9.23;65.65;98754.09;4445666;32;33598;-56
2021/12/24 14:26:34;;;;;;;;;;;;;;;9.20;65.27;98760.41;4450763;32;35778;-56
2021/12/24 14:29:05;;;;;;;;;;;;;;;9.22;65.19;98747.94;4448052;32;33012;-56
2021/12/24 14:31:52;;;;;;;;;;;;;;;9.25;64.77;98747.75;4441797;32;33398;-56
2021/12/24 14:34:33;;;;;;;;;;;;;;;9.16;64.61;98743.13;4451667;32;35003;-56
2021/12/24 14:37:02;;;;;;;;;;;;;;;8.94;66.46;98748.28;4436090;32;34862;-55
2021/12/24 14:39:41;;;;;;;;;;;;;;;8.87;67.41;98740.81;4450793;32;35263;-56
2021/12/24 14:42:20;;;;;;;;;;;;;;;9.04;66.67;98747.50;4450794;32;33061;-55
2021/12/24 14:44:48;;;;;;;;;;;;;;;9.16;69.05;98748.41;4450250;32;34051;-56
2021/12/24 14:47:20;;;;;;;;;;;;;;;9.01;67.26;98739.81;4450149;32;34446;-56
2021/12/24 14:49:48;;;;;;;;;;;;;;;9.03;66.89;98744.97;4440078;32;33911;-56
2021/12/24 14:52:22;;;;;;;;;;;;;;;8.97;66.80;98743.63;4451409;32;33337;-55